sensor_id;sensor_type;location;lat;lon;timestamp;P1;durP1;ratioP1;P2;durP2;ratioP2
46086;SDS011;31824;49.648;8.640;2022-07-12T00:02:44;1.38;;;0.38;;
46086;SDS011;31824;49.648;8.640;2022-07-12T00:05:45;0.45;;;0.30;;
46086;SDS011;31824;49.648;8.640;2022-07-12T00:08:47;0.30;;;0.20;;
46086;SDS011;31824;49.648;8.640;2022-07-12T00:11:49;0.77;;;0.30;;
46086;SDS011;31824;49.648;8.640;2022-07-12T00:14:50;0.68;;;0.40;;
46086;SDS011;31824;49.648;8.640;2022-07-12T00:17:52;1.88;;;0.50;;
46086;SDS011;31824;49.648;8.640;2022-07-12T00:20:54;0.35;;;0.20;;
46086;SDS011;31824;49.648;8.640;2022-07-12T00:23:55;0.52;;;0.22;;
46086;SDS011;31824;49.648;8.640;2022-07-12T00:26:57;0.68;;;0.30;;
46086;SDS011;31824;49.648;8.640;2022-07-12T00:29:58;2.28;;;0.40;;
46086;SDS011;31824;49.648;8.640;2022-07-12T00:33:00;1.55;;;0.40;;
46086;SDS011;31824;49.648;8.640;2022-07-12T00:36:02;0.60;;;0.28;;
46086;SDS011;31824;49.648;8.640;2022-07-12T00:39:04;0.68;;;0.30;;
46086;SDS011;31824;49.648;8.640;2022-07-12T00:42:05;0.30;;;0.20;;
46086;SDS011;31824;49.648;8.640;2022-07-12T00:45:07;0.32;;;0.20;;
46086;SDS011;31824;49.648;8.640;2022-07-12T00:48:10;0.60;;;0.20;;
46086;SDS011;31824;49.648;8.640;2022-07-12T00:51:12;0.38;;;0.30;;
46086;SDS011;31824;49.648;8.640;2022-07-12T00:54:14;0.85;;;0.28;;
46086;SDS011;31824;49.648;8.640;2022-07-12T00:57:16;0.68;;;0.30;;
46086;SDS011;31824;49.648;8.640;2022-07-12T01:00:20;1.02;;;0.43;;
46086;SDS011;31824;49.648;8.640;2022-07-12T01:03:24;0.40;;;0.20;;
46086;SDS011;31824;49.648;8.640;2022-07-12T01:06:27;0.82;;;0.30;;
46086;SDS011;31824;49.648;8.640;2022-07-12T01:09:30;0.20;;;0.13;;
46086;SDS011;31824;49.648;8.640;2022-07-12T01:12:32;0.60;;;0.20;;
46086;SDS011;31824;49.648;8.640;2022-07-12T01:15:34;0.70;;;0.30;;
46086;SDS011;31824;49.648;8.640;2022-07-12T01:18:36;1.88;;;0.40;;
46086;SDS011;31824;49.648;8.640;2022-07-12T01:21:39;1.40;;;0.20;;
46086;SDS011;31824;49.648;8.640;2022-07-12T01:24:43;0.68;;;0.30;;
46086;SDS011;31824;49.648;8.640;2022-07-12T01:27:45;0.55;;;0.30;;
46086;SDS011;31824;49.648;8.640;2022-07-12T01:30:47;0.63;;;0.20;;
46086;SDS011;31824;49.648;8.640;2022-07-12T01:33:49;0.38;;;0.20;;
46086;SDS011;31824;49.648;8.640;2022-07-12T01:36:51;0.50;;;0.35;;
46086;SDS011;31824;49.648;8.640;2022-07-12T01:39:54;0.40;;;0.25;;
46086;SDS011;31824;49.648;8.640;2022-07-12T01:42:58;1.23;;;0.30;;
46086;SDS011;31824;49.648;8.640;2022-07-12T01:46:00;0.50;;;0.20;;
46086;SDS011;31824;49.648;8.640;2022-07-12T01:49:02;0.35;;;0.20;;
46086;SDS011;31824;49.648;8.640;2022-07-12T01:52:04;1.23;;;0.40;;
46086;SDS011;31824;49.648;8.640;2022-07-12T01:55:06;0.50;;;0.30;;
46086;SDS011;31824;49.648;8.640;2022-07-12T01:58:09;1.05;;;0.40;;
46086;SDS011;31824;49.648;8.640;2022-07-12T02:01:12;0.73;;;0.40;;
46086;SDS011;31824;49.648;8.640;2022-07-12T02:04:17;0.40;;;0.20;;
46086;SDS011;31824;49.648;8.640;2022-07-12T02:07:20;1.02;;;0.28;;
46086;SDS011;31824;49.648;8.640;2022-07-12T02:10:22;0.43;;;0.25;;
46086;SDS011;31824;49.648;8.640;2022-07-12T02:13:24;1.10;;;0.20;;
46086;SDS011;31824;49.648;8.640;2022-07-12T02:16:25;0.73;;;0.30;;
46086;SDS011;31824;49.648;8.640;2022-07-12T02:19:27;0.82;;;0.22;;
46086;SDS011;31824;49.648;8.640;2022-07-12T02:22:28;0.57;;;0.25;;
46086;SDS011;31824;49.648;8.640;2022-07-12T02:25:30;0.40;;;0.25;;
46086;SDS011;31824;49.648;8.640;2022-07-12T02:28:32;0.73;;;0.30;;
46086;SDS011;31824;49.648;8.640;2022-07-12T02:31:33;0.52;;;0.30;;
46086;SDS011;31824;49.648;8.640;2022-07-12T02:34:35;0.63;;;0.30;;
46086;SDS011;31824;49.648;8.640;2022-07-12T02:37:37;0.20;;;0.20;;
46086;SDS011;31824;49.648;8.640;2022-07-12T02:40:38;0.55;;;0.20;;
46086;SDS011;31824;49.648;8.640;2022-07-12T02:43:54;0.82;;;0.20;;
46086;SDS011;31824;49.648;8.640;2022-07-12T02:46:56;0.52;;;0.30;;
46086;SDS011;31824;49.648;8.640;2022-07-12T02:49:58;0.85;;;0.30;;
46086;SDS011;31824;49.648;8.640;2022-07-12T02:52:59;0.63;;;0.20;;
46086;SDS011;31824;49.648;8.640;2022-07-12T02:56:01;0.65;;;0.30;;
46086;SDS011;31824;49.648;8.640;2022-07-12T02:59:03;0.75;;;0.30;;
46086;SDS011;31824;49.648;8.640;2022-07-12T03:02:05;0.60;;;0.30;;
46086;SDS011;31824;49.648;8.640;2022-07-12T03:05:07;0.50;;;0.20;;
46086;SDS011;31824;49.648;8.640;2022-07-12T03:08:09;0.22;;;0.10;;
46086;SDS011;31824;49.648;8.640;2022-07-12T03:11:11;0.50;;;0.20;;
46086;SDS011;31824;49.648;8.640;2022-07-12T03:14:13;1.08;;;0.40;;
46086;SDS011;31824;49.648;8.640;2022-07-12T03:17:15;0.63;;;0.40;;
46086;SDS011;31824;49.648;8.640;2022-07-12T03:20:16;0.20;;;0.10;;
46086;SDS011;31824;49.648;8.640;2022-07-12T03:23:18;0.43;;;0.20;;
46086;SDS011;31824;49.648;8.640;2022-07-12T03:26:20;0.50;;;0.30;;
46086;SDS011;31824;49.648;8.640;2022-07-12T03:29:22;0.50;;;0.20;;
46086;SDS011;31824;49.648;8.640;2022-07-12T03:32:24;0.52;;;0.20;;
46086;SDS011;31824;49.648;8.640;2022-07-12T03:35:25;0.30;;;0.20;;
46086;SDS011;31824;49.648;8.640;2022-07-12T03:38:27;0.77;;;0.30;;
46086;SDS011;31824;49.648;8.640;2022-07-12T03:41:28;1.50;;;0.30;;
46086;SDS011;31824;49.648;8.640;2022-07-12T03:44:30;0.40;;;0.28;;
46086;SDS011;31824;49.648;8.640;2022-07-12T03:47:31;0.57;;;0.28;;
46086;SDS011;31824;49.648;8.640;2022-07-12T03:50:33;0.57;;;0.20;;
46086;SDS011;31824;49.648;8.640;2022-07-12T03:53:35;0.85;;;0.30;;
46086;SDS011;31824;49.648;8.640;2022-07-12T03:56:36;0.55;;;0.30;;
46086;SDS011;31824;49.648;8.640;2022-07-12T03:59:56;0.75;;;0.40;;
46086;SDS011;31824;49.648;8.640;2022-07-12T04:02:58;0.38;;;0.17;;
46086;SDS011;31824;49.648;8.640;2022-07-12T04:05:59;0.20;;;0.20;;
46086;SDS011;31824;49.648;8.640;2022-07-12T04:09:02;0.90;;;0.40;;
46086;SDS011;31824;49.648;8.640;2022-07-12T04:12:04;0.73;;;0.38;;
46086;SDS011;31824;49.648;8.640;2022-07-12T04:15:06;0.93;;;0.32;;
46086;SDS011;31824;49.648;8.640;2022-07-12T04:18:08;0.98;;;0.30;;
46086;SDS011;31824;49.648;8.640;2022-07-12T04:21:10;0.40;;;0.20;;
46086;SDS011;31824;49.648;8.640;2022-07-12T04:24:11;0.63;;;0.35;;
46086;SDS011;31824;49.648;8.640;2022-07-12T04:27:12;0.30;;;0.20;;
46086;SDS011;31824;49.648;8.640;2022-07-12T04:30:14;0.45;;;0.30;;
46086;SDS011;31824;49.648;8.640;2022-07-12T04:33:15;0.52;;;0.30;;
46086;SDS011;31824;49.648;8.640;2022-07-12T04:36:17;0.80;;;0.30;;
46086;SDS011;31824;49.648;8.640;2022-07-12T04:39:19;0.93;;;0.40;;
46086;SDS011;31824;49.648;8.640;2022-07-12T04:42:20;0.68;;;0.30;;
46086;SDS011;31824;49.648;8.640;2022-07-12T04:45:22;0.93;;;0.40;;
46086;SDS011;31824;49.648;8.640;2022-07-12T04:48:23;0.88;;;0.35;;
46086;SDS011;31824;49.648;8.640;2022-07-12T04:51:25;0.60;;;0.30;;
46086;SDS011;31824;49.648;8.640;2022-07-12T04:54:26;1.63;;;0.40;;
46086;SDS011;31824;49.648;8.640;2022-07-12T04:57:28;1.30;;;1.10;;
46086;SDS011;31824;49.648;8.640;2022-07-12T05:00:30;0.43;;;0.30;;
46086;SDS011;31824;49.648;8.640;2022-07-12T05:03:31;1.33;;;0.40;;
46086;SDS011;31824;49.648;8.640;2022-07-12T05:06:33;0.65;;;0.30;;
46086;SDS011;31824;49.648;8.640;2022-07-12T05:09:34;0.68;;;0.30;;
46086;SDS011;31824;49.648;8.640;2022-07-12T05:12:36;1.30;;;0.50;;
46086;SDS011;31824;49.648;8.640;2022-07-12T05:15:37;1.10;;;0.50;;
46086;SDS011;31824;49.648;8.640;2022-07-12T05:18:39;0.90;;;0.43;;
46086;SDS011;31824;49.648;8.640;2022-07-12T05:21:40;0.75;;;0.40;;
46086;SDS011;31824;49.648;8.640;2022-07-12T05:24:43;1.08;;;0.50;;
46086;SDS011;31824;49.648;8.640;2022-07-12T05:27:44;0.73;;;0.38;;
46086;SDS011;31824;49.648;8.640;2022-07-12T05:30:46;0.60;;;0.40;;
46086;SDS011;31824;49.648;8.640;2022-07-12T05:33:48;0.52;;;0.30;;
46086;SDS011;31824;49.648;8.640;2022-07-12T05:36:50;0.80;;;0.32;;
46086;SDS011;31824;49.648;8.640;2022-07-12T05:39:52;0.82;;;0.40;;
46086;SDS011;31824;49.648;8.640;2022-07-12T05:42:53;1.35;;;0.40;;
46086;SDS011;31824;49.648;8.640;2022-07-12T05:45:56;1.08;;;0.40;;
46086;SDS011;31824;49.648;8.640;2022-07-12T05:48:57;0.55;;;0.40;;
46086;SDS011;31824;49.648;8.640;2022-07-12T05:51:59;0.47;;;0.35;;
46086;SDS011;31824;49.648;8.640;2022-07-12T05:55:19;0.82;;;0.40;;
46086;SDS011;31824;49.648;8.640;2022-07-12T05:58:21;1.23;;;0.40;;
46086;SDS011;31824;49.648;8.640;2022-07-12T06:01:22;0.80;;;0.38;;
46086;SDS011;31824;49.648;8.640;2022-07-12T06:04:24;1.05;;;0.45;;
46086;SDS011;31824;49.648;8.640;2022-07-12T06:07:25;3.50;;;0.40;;
46086;SDS011;31824;49.648;8.640;2022-07-12T06:10:27;0.70;;;0.40;;
46086;SDS011;31824;49.648;8.640;2022-07-12T06:13:29;1.30;;;0.40;;
46086;SDS011;31824;49.648;8.640;2022-07-12T06:16:30;1.00;;;0.40;;
46086;SDS011;31824;49.648;8.640;2022-07-12T06:19:32;0.82;;;0.40;;
46086;SDS011;31824;49.648;8.640;2022-07-12T06:22:33;1.77;;;0.63;;
46086;SDS011;31824;49.648;8.640;2022-07-12T06:25:35;1.92;;;0.60;;
46086;SDS011;31824;49.648;8.640;2022-07-12T06:28:45;0.98;;;0.52;;
46086;SDS011;31824;49.648;8.640;2022-07-12T06:31:46;1.38;;;0.57;;
46086;SDS011;31824;49.648;8.640;2022-07-12T06:34:48;1.60;;;0.52;;
46086;SDS011;31824;49.648;8.640;2022-07-12T06:37:50;2.00;;;0.70;;
46086;SDS011;31824;49.648;8.640;2022-07-12T06:40:51;1.27;;;0.52;;
46086;SDS011;31824;49.648;8.640;2022-07-12T06:43:53;1.30;;;0.70;;
46086;SDS011;31824;49.648;8.640;2022-07-12T06:46:54;2.08;;;0.90;;
46086;SDS011;31824;49.648;8.640;2022-07-12T06:49:55;1.83;;;0.90;;
46086;SDS011;31824;49.648;8.640;2022-07-12T06:52:58;1.85;;;0.70;;
46086;SDS011;31824;49.648;8.640;2022-07-12T06:55:59;2.25;;;0.88;;
46086;SDS011;31824;49.648;8.640;2022-07-12T06:59:01;2.17;;;0.80;;
46086;SDS011;31824;49.648;8.640;2022-07-12T07:02:02;1.40;;;0.63;;
46086;SDS011;31824;49.648;8.640;2022-07-12T07:05:05;1.55;;;0.65;;
46086;SDS011;31824;49.648;8.640;2022-07-12T07:08:07;1.83;;;0.60;;
46086;SDS011;31824;49.648;8.640;2022-07-12T07:11:11;1.77;;;0.55;;
46086;SDS011;31824;49.648;8.640;2022-07-12T07:14:12;1.17;;;0.60;;
46086;SDS011;31824;49.648;8.640;2022-07-12T07:17:15;0.95;;;0.60;;
46086;SDS011;31824;49.648;8.640;2022-07-12T07:20:18;1.20;;;0.70;;
46086;SDS011;31824;49.648;8.640;2022-07-12T07:23:19;1.35;;;0.75;;
46086;SDS011;31824;49.648;8.640;2022-07-12T07:26:21;1.13;;;0.70;;
46086;SDS011;31824;49.648;8.640;2022-07-12T07:29:23;1.23;;;0.68;;
46086;SDS011;31824;49.648;8.640;2022-07-12T07:32:43;1.27;;;0.75;;
46086;SDS011;31824;49.648;8.640;2022-07-12T07:35:46;1.30;;;0.63;;
46086;SDS011;31824;49.648;8.640;2022-07-12T07:38:48;1.70;;;0.55;;
46086;SDS011;31824;49.648;8.640;2022-07-12T07:41:49;1.83;;;0.60;;
46086;SDS011;31824;49.648;8.640;2022-07-12T07:44:51;1.58;;;0.50;;
46086;SDS011;31824;49.648;8.640;2022-07-12T07:48:13;0.60;;;0.40;;
46086;SDS011;31824;49.648;8.640;2022-07-12T07:51:25;1.25;;;0.50;;
46086;SDS011;31824;49.648;8.640;2022-07-12T07:54:26;0.60;;;0.35;;
46086;SDS011;31824;49.648;8.640;2022-07-12T07:57:29;0.90;;;0.40;;
46086;SDS011;31824;49.648;8.640;2022-07-12T08:00:30;1.75;;;0.30;;
46086;SDS011;31824;49.648;8.640;2022-07-12T08:03:32;0.75;;;0.40;;
46086;SDS011;31824;49.648;8.640;2022-07-12T08:06:34;0.50;;;0.30;;
46086;SDS011;31824;49.648;8.640;2022-07-12T08:09:35;0.80;;;0.20;;
46086;SDS011;31824;49.648;8.640;2022-07-12T08:12:36;0.25;;;0.10;;
46086;SDS011;31824;49.648;8.640;2022-07-12T08:15:38;0.30;;;0.20;;
46086;SDS011;31824;49.648;8.640;2022-07-12T08:18:40;0.28;;;0.20;;
46086;SDS011;31824;49.648;8.640;2022-07-12T08:21:41;0.65;;;0.20;;
46086;SDS011;31824;49.648;8.640;2022-07-12T08:24:43;0.30;;;0.20;;
46086;SDS011;31824;49.648;8.640;2022-07-12T08:27:44;0.40;;;0.20;;
46086;SDS011;31824;49.648;8.640;2022-07-12T08:30:46;0.50;;;0.20;;
46086;SDS011;31824;49.648;8.640;2022-07-12T08:33:47;0.22;;;0.10;;
46086;SDS011;31824;49.648;8.640;2022-07-12T08:36:49;0.20;;;0.20;;
46086;SDS011;31824;49.648;8.640;2022-07-12T08:39:50;1.48;;;0.22;;
46086;SDS011;31824;49.648;8.640;2022-07-12T08:42:52;0.40;;;0.10;;
46086;SDS011;31824;49.648;8.640;2022-07-12T08:46:01;0.77;;;0.22;;
46086;SDS011;31824;49.648;8.640;2022-07-12T08:49:07;0.50;;;0.30;;
46086;SDS011;31824;49.648;8.640;2022-07-12T08:52:24;0.13;;;0.13;;
46086;SDS011;31824;49.648;8.640;2022-07-12T08:55:28;0.10;;;0.10;;
46086;SDS011;31824;49.648;8.640;2022-07-12T08:58:30;0.57;;;0.10;;
46086;SDS011;31824;49.648;8.640;2022-07-12T09:01:42;0.30;;;0.20;;
46086;SDS011;31824;49.648;8.640;2022-07-12T09:04:45;0.10;;;0.10;;
46086;SDS011;31824;49.648;8.640;2022-07-12T09:07:47;0.15;;;0.10;;
46086;SDS011;31824;49.648;8.640;2022-07-12T09:10:58;0.63;;;0.20;;
46086;SDS011;31824;49.648;8.640;2022-07-12T09:14:01;0.47;;;0.20;;
46086;SDS011;31824;49.648;8.640;2022-07-12T09:17:07;0.10;;;0.10;;
46086;SDS011;31824;49.648;8.640;2022-07-12T09:20:15;0.40;;;0.20;;
46086;SDS011;31824;49.648;8.640;2022-07-12T09:23:16;0.20;;;0.10;;
46086;SDS011;31824;49.648;8.640;2022-07-12T09:26:18;0.20;;;0.10;;
46086;SDS011;31824;49.648;8.640;2022-07-12T09:29:20;0.20;;;0.10;;
46086;SDS011;31824;49.648;8.640;2022-07-12T09:32:21;0.45;;;0.20;;
46086;SDS011;31824;49.648;8.640;2022-07-12T09:35:42;0.10;;;0.00;;
46086;SDS011;31824;49.648;8.640;2022-07-12T09:39:03;0.28;;;0.13;;
46086;SDS011;31824;49.648;8.640;2022-07-12T09:42:06;0.45;;;0.15;;
46086;SDS011;31824;49.648;8.640;2022-07-12T09:45:10;0.22;;;0.10;;
46086;SDS011;31824;49.648;8.640;2022-07-12T09:48:12;0.28;;;0.20;;
46086;SDS011;31824;49.648;8.640;2022-07-12T09:51:15;0.20;;;0.10;;
46086;SDS011;31824;49.648;8.640;2022-07-12T09:54:19;0.90;;;0.25;;
46086;SDS011;31824;49.648;8.640;2022-07-12T09:57:32;0.60;;;0.20;;
46086;SDS011;31824;49.648;8.640;2022-07-12T10:00:34;0.50;;;0.20;;
46086;SDS011;31824;49.648;8.640;2022-07-12T10:03:37;0.20;;;0.17;;
46086;SDS011;31824;49.648;8.640;2022-07-12T10:06:41;0.47;;;0.20;;
46086;SDS011;31824;49.648;8.640;2022-07-12T10:09:43;0.40;;;0.20;;
46086;SDS011;31824;49.648;8.640;2022-07-12T10:12:48;0.52;;;0.20;;
46086;SDS011;31824;49.648;8.640;2022-07-12T10:15:51;0.40;;;0.28;;
46086;SDS011;31824;49.648;8.640;2022-07-12T10:22:25;0.30;;;0.13;;
46086;SDS011;31824;49.648;8.640;2022-07-12T10:25:31;0.20;;;0.00;;
46086;SDS011;31824;49.648;8.640;2022-07-12T10:32:00;0.57;;;0.25;;
46086;SDS011;31824;49.648;8.640;2022-07-12T10:35:04;0.10;;;0.10;;
46086;SDS011;31824;49.648;8.640;2022-07-12T10:38:13;0.17;;;0.10;;
46086;SDS011;31824;49.648;8.640;2022-07-12T10:41:18;0.15;;;0.03;;
46086;SDS011;31824;49.648;8.640;2022-07-12T10:51:15;1.13;;;0.25;;
46086;SDS011;31824;49.648;8.640;2022-07-12T10:54:23;0.20;;;0.10;;
46086;SDS011;31824;49.648;8.640;2022-07-12T10:57:40;0.13;;;0.10;;
46086;SDS011;31824;49.648;8.640;2022-07-12T11:00:44;0.10;;;0.10;;
46086;SDS011;31824;49.648;8.640;2022-07-12T11:06:56;0.40;;;0.20;;
46086;SDS011;31824;49.648;8.640;2022-07-12T11:10:03;3.40;;;0.13;;
46086;SDS011;31824;49.648;8.640;2022-07-12T11:13:19;0.38;;;0.20;;
46086;SDS011;31824;49.648;8.640;2022-07-12T11:16:26;0.30;;;0.10;;
46086;SDS011;31824;49.648;8.640;2022-07-12T11:19:30;0.40;;;0.13;;
46086;SDS011;31824;49.648;8.640;2022-07-12T11:22:32;0.15;;;0.10;;
46086;SDS011;31824;49.648;8.640;2022-07-12T11:25:34;0.38;;;0.10;;
46086;SDS011;31824;49.648;8.640;2022-07-12T11:28:36;0.40;;;0.20;;
46086;SDS011;31824;49.648;8.640;2022-07-12T11:31:38;0.40;;;0.20;;
46086;SDS011;31824;49.648;8.640;2022-07-12T11:34:40;0.40;;;0.10;;
46086;SDS011;31824;49.648;8.640;2022-07-12T11:37:51;1.10;;;0.10;;
46086;SDS011;31824;49.648;8.640;2022-07-12T11:40:57;0.15;;;0.10;;
46086;SDS011;31824;49.648;8.640;2022-07-12T11:44:00;0.30;;;0.20;;
46086;SDS011;31824;49.648;8.640;2022-07-12T11:47:02;0.40;;;0.17;;
46086;SDS011;31824;49.648;8.640;2022-07-12T11:50:04;0.50;;;0.10;;
46086;SDS011;31824;49.648;8.640;2022-07-12T11:53:06;1.15;;;0.20;;
46086;SDS011;31824;49.648;8.640;2022-07-12T11:56:08;0.40;;;0.10;;
46086;SDS011;31824;49.648;8.640;2022-07-12T11:59:11;0.10;;;0.10;;
46086;SDS011;31824;49.648;8.640;2022-07-12T12:02:13;0.45;;;0.15;;
46086;SDS011;31824;49.648;8.640;2022-07-12T12:05:17;0.22;;;0.10;;
46086;SDS011;31824;49.648;8.640;2022-07-12T12:08:19;1.05;;;0.30;;
46086;SDS011;31824;49.648;8.640;2022-07-12T12:11:26;0.35;;;0.20;;
46086;SDS011;31824;49.648;8.640;2022-07-12T12:14:34;0.38;;;0.20;;
46086;SDS011;31824;49.648;8.640;2022-07-12T12:17:36;0.20;;;0.10;;
46086;SDS011;31824;49.648;8.640;2022-07-12T12:20:39;0.50;;;0.20;;
46086;SDS011;31824;49.648;8.640;2022-07-12T12:23:43;0.60;;;0.20;;
46086;SDS011;31824;49.648;8.640;2022-07-12T12:26:45;0.30;;;0.10;;
46086;SDS011;31824;49.648;8.640;2022-07-12T12:29:46;0.20;;;0.10;;
46086;SDS011;31824;49.648;8.640;2022-07-12T12:35:54;0.40;;;0.20;;
46086;SDS011;31824;49.648;8.640;2022-07-12T12:38:57;0.20;;;0.10;;
46086;SDS011;31824;49.648;8.640;2022-07-12T12:42:04;0.20;;;0.10;;
46086;SDS011;31824;49.648;8.640;2022-07-12T12:45:06;0.20;;;0.10;;
46086;SDS011;31824;49.648;8.640;2022-07-12T12:48:08;0.50;;;0.20;;
46086;SDS011;31824;49.648;8.640;2022-07-12T12:51:10;0.10;;;0.08;;
46086;SDS011;31824;49.648;8.640;2022-07-12T12:54:12;0.50;;;0.22;;
46086;SDS011;31824;49.648;8.640;2022-07-12T12:57:13;0.70;;;0.20;;
46086;SDS011;31824;49.648;8.640;2022-07-12T13:00:15;0.38;;;0.13;;
46086;SDS011;31824;49.648;8.640;2022-07-12T13:03:17;0.17;;;0.10;;
46086;SDS011;31824;49.648;8.640;2022-07-12T13:09:24;0.80;;;0.20;;
46086;SDS011;31824;49.648;8.640;2022-07-12T13:12:26;0.88;;;0.30;;
46086;SDS011;31824;49.648;8.640;2022-07-12T13:15:28;0.57;;;0.20;;
46086;SDS011;31824;49.648;8.640;2022-07-12T13:18:30;0.10;;;0.10;;
46086;SDS011;31824;49.648;8.640;2022-07-12T13:21:32;0.20;;;0.10;;
46086;SDS011;31824;49.648;8.640;2022-07-12T13:24:34;0.50;;;0.20;;
46086;SDS011;31824;49.648;8.640;2022-07-12T13:27:36;0.82;;;0.40;;
46086;SDS011;31824;49.648;8.640;2022-07-12T13:30:38;0.20;;;0.10;;
46086;SDS011;31824;49.648;8.640;2022-07-12T13:33:40;0.52;;;0.20;;
46086;SDS011;31824;49.648;8.640;2022-07-12T13:36:41;0.17;;;0.17;;
46086;SDS011;31824;49.648;8.640;2022-07-12T13:39:43;0.50;;;0.20;;
46086;SDS011;31824;49.648;8.640;2022-07-12T13:43:03;0.25;;;0.20;;
46086;SDS011;31824;49.648;8.640;2022-07-12T13:46:05;0.35;;;0.20;;
46086;SDS011;31824;49.648;8.640;2022-07-12T13:49:06;0.20;;;0.20;;
46086;SDS011;31824;49.648;8.640;2022-07-12T13:52:08;0.50;;;0.20;;
46086;SDS011;31824;49.648;8.640;2022-07-12T13:55:10;0.30;;;0.20;;
46086;SDS011;31824;49.648;8.640;2022-07-12T13:58:13;0.22;;;0.13;;
46086;SDS011;31824;49.648;8.640;2022-07-12T14:01:17;0.47;;;0.30;;
46086;SDS011;31824;49.648;8.640;2022-07-12T14:04:19;0.40;;;0.30;;
46086;SDS011;31824;49.648;8.640;2022-07-12T14:07:20;0.20;;;0.10;;
46086;SDS011;31824;49.648;8.640;2022-07-12T14:10:22;1.00;;;0.25;;
46086;SDS011;31824;49.648;8.640;2022-07-12T14:13:23;0.55;;;0.30;;
46086;SDS011;31824;49.648;8.640;2022-07-12T14:16:25;0.70;;;0.38;;
46086;SDS011;31824;49.648;8.640;2022-07-12T14:19:27;0.43;;;0.25;;
46086;SDS011;31824;49.648;8.640;2022-07-12T14:22:28;0.32;;;0.20;;
46086;SDS011;31824;49.648;8.640;2022-07-12T14:25:30;0.45;;;0.20;;
46086;SDS011;31824;49.648;8.640;2022-07-12T14:28:32;0.28;;;0.17;;
46086;SDS011;31824;49.648;8.640;2022-07-12T14:31:34;2.08;;;0.28;;
46086;SDS011;31824;49.648;8.640;2022-07-12T14:34:35;0.35;;;0.20;;
46086;SDS011;31824;49.648;8.640;2022-07-12T14:37:37;0.60;;;0.20;;
46086;SDS011;31824;49.648;8.640;2022-07-12T14:40:39;0.30;;;0.20;;
46086;SDS011;31824;49.648;8.640;2022-07-12T14:43:40;0.40;;;0.20;;
46086;SDS011;31824;49.648;8.640;2022-07-12T14:46:42;1.48;;;0.20;;
46086;SDS011;31824;49.648;8.640;2022-07-12T14:49:44;0.30;;;0.20;;
46086;SDS011;31824;49.648;8.640;2022-07-12T14:52:46;0.25;;;0.10;;
46086;SDS011;31824;49.648;8.640;2022-07-12T14:55:47;0.32;;;0.20;;
46086;SDS011;31824;49.648;8.640;2022-07-12T14:58:50;0.65;;;0.20;;
46086;SDS011;31824;49.648;8.640;2022-07-12T15:01:51;0.10;;;0.10;;
46086;SDS011;31824;49.648;8.640;2022-07-12T15:04:53;1.52;;;0.30;;
46086;SDS011;31824;49.648;8.640;2022-07-12T15:07:55;0.30;;;0.10;;
46086;SDS011;31824;49.648;8.640;2022-07-12T15:10:56;0.40;;;0.30;;
46086;SDS011;31824;49.648;8.640;2022-07-12T15:13:58;0.38;;;0.20;;
46086;SDS011;31824;49.648;8.640;2022-07-12T15:16:59;1.25;;;0.30;;
46086;SDS011;31824;49.648;8.640;2022-07-12T15:20:02;0.80;;;0.30;;
46086;SDS011;31824;49.648;8.640;2022-07-12T15:23:05;0.80;;;0.30;;
46086;SDS011;31824;49.648;8.640;2022-07-12T15:26:06;0.10;;;0.10;;
46086;SDS011;31824;49.648;8.640;2022-07-12T15:29:08;0.93;;;0.20;;
46086;SDS011;31824;49.648;8.640;2022-07-12T15:32:09;0.50;;;0.20;;
46086;SDS011;31824;49.648;8.640;2022-07-12T15:35:11;2.45;;;0.30;;
46086;SDS011;31824;49.648;8.640;2022-07-12T15:38:13;0.20;;;0.10;;
46086;SDS011;31824;49.648;8.640;2022-07-12T15:41:15;0.60;;;0.20;;
46086;SDS011;31824;49.648;8.640;2022-07-12T15:44:17;0.65;;;0.20;;
46086;SDS011;31824;49.648;8.640;2022-07-12T15:47:19;0.73;;;0.22;;
46086;SDS011;31824;49.648;8.640;2022-07-12T15:50:21;0.30;;;0.20;;
46086;SDS011;31824;49.648;8.640;2022-07-12T15:53:22;0.68;;;0.17;;
46086;SDS011;31824;49.648;8.640;2022-07-12T15:56:28;0.20;;;0.10;;
46086;SDS011;31824;49.648;8.640;2022-07-12T15:59:29;0.95;;;0.22;;
46086;SDS011;31824;49.648;8.640;2022-07-12T16:02:32;0.95;;;0.20;;
46086;SDS011;31824;49.648;8.640;2022-07-12T16:05:33;0.20;;;0.10;;
46086;SDS011;31824;49.648;8.640;2022-07-12T16:08:37;0.63;;;0.10;;
46086;SDS011;31824;49.648;8.640;2022-07-12T16:11:39;0.10;;;0.10;;
46086;SDS011;31824;49.648;8.640;2022-07-12T16:14:41;0.45;;;0.15;;
46086;SDS011;31824;49.648;8.640;2022-07-12T16:17:44;0.38;;;0.17;;
46086;SDS011;31824;49.648;8.640;2022-07-12T16:20:45;0.65;;;0.25;;
46086;SDS011;31824;49.648;8.640;2022-07-12T16:23:48;0.30;;;0.10;;
46086;SDS011;31824;49.648;8.640;2022-07-12T16:26:50;0.43;;;0.20;;
46086;SDS011;31824;49.648;8.640;2022-07-12T16:29:52;0.32;;;0.10;;
46086;SDS011;31824;49.648;8.640;2022-07-12T16:32:54;0.98;;;0.20;;
46086;SDS011;31824;49.648;8.640;2022-07-12T16:35:56;0.73;;;0.30;;
46086;SDS011;31824;49.648;8.640;2022-07-12T16:38:58;0.40;;;0.10;;
46086;SDS011;31824;49.648;8.640;2022-07-12T16:41:59;0.50;;;0.20;;
46086;SDS011;31824;49.648;8.640;2022-07-12T16:45:01;0.20;;;0.20;;
46086;SDS011;31824;49.648;8.640;2022-07-12T16:48:03;0.50;;;0.13;;
46086;SDS011;31824;49.648;8.640;2022-07-12T16:51:05;0.20;;;0.10;;
46086;SDS011;31824;49.648;8.640;2022-07-12T16:54:22;0.85;;;0.20;;
46086;SDS011;31824;49.648;8.640;2022-07-12T16:57:24;0.40;;;0.20;;
46086;SDS011;31824;49.648;8.640;2022-07-12T17:00:26;0.52;;;0.30;;
46086;SDS011;31824;49.648;8.640;2022-07-12T17:03:27;1.25;;;0.20;;
46086;SDS011;31824;49.648;8.640;2022-07-12T17:06:29;0.28;;;0.20;;
46086;SDS011;31824;49.648;8.640;2022-07-12T17:09:34;0.65;;;0.13;;
46086;SDS011;31824;49.648;8.640;2022-07-12T17:12:36;0.73;;;0.30;;
46086;SDS011;31824;49.648;8.640;2022-07-12T17:15:39;0.45;;;0.20;;
46086;SDS011;31824;49.648;8.640;2022-07-12T17:18:40;0.50;;;0.30;;
46086;SDS011;31824;49.648;8.640;2022-07-12T17:21:43;0.20;;;0.10;;
46086;SDS011;31824;49.648;8.640;2022-07-12T17:24:44;0.65;;;0.20;;
46086;SDS011;31824;49.648;8.640;2022-07-12T17:27:56;0.45;;;0.30;;
46086;SDS011;31824;49.648;8.640;2022-07-12T17:30:59;0.20;;;0.10;;
46086;SDS011;31824;49.648;8.640;2022-07-12T17:34:02;0.20;;;0.10;;
46086;SDS011;31824;49.648;8.640;2022-07-12T17:37:04;0.45;;;0.20;;
46086;SDS011;31824;49.648;8.640;2022-07-12T17:40:06;0.28;;;0.10;;
46086;SDS011;31824;49.648;8.640;2022-07-12T17:43:08;0.30;;;0.10;;
46086;SDS011;31824;49.648;8.640;2022-07-12T17:46:10;0.30;;;0.20;;
46086;SDS011;31824;49.648;8.640;2022-07-12T17:49:12;0.77;;;0.22;;
46086;SDS011;31824;49.648;8.640;2022-07-12T17:52:14;0.50;;;0.20;;
46086;SDS011;31824;49.648;8.640;2022-07-12T17:55:16;1.88;;;0.20;;
46086;SDS011;31824;49.648;8.640;2022-07-12T17:58:18;0.20;;;0.10;;
46086;SDS011;31824;49.648;8.640;2022-07-12T18:01:38;1.67;;;0.28;;
46086;SDS011;31824;49.648;8.640;2022-07-12T18:04:40;0.30;;;0.13;;
46086;SDS011;31824;49.648;8.640;2022-07-12T18:07:41;0.43;;;0.20;;
46086;SDS011;31824;49.648;8.640;2022-07-12T18:10:43;0.40;;;0.20;;
46086;SDS011;31824;49.648;8.640;2022-07-12T18:13:44;0.32;;;0.20;;
46086;SDS011;31824;49.648;8.640;2022-07-12T18:17:04;0.57;;;0.20;;
46086;SDS011;31824;49.648;8.640;2022-07-12T18:20:25;1.55;;;0.20;;
46086;SDS011;31824;49.648;8.640;2022-07-12T18:23:34;0.30;;;0.10;;
46086;SDS011;31824;49.648;8.640;2022-07-12T18:26:36;0.63;;;0.30;;
46086;SDS011;31824;49.648;8.640;2022-07-12T18:29:37;0.30;;;0.10;;
46086;SDS011;31824;49.648;8.640;2022-07-12T18:32:39;0.20;;;0.17;;
46086;SDS011;31824;49.648;8.640;2022-07-12T18:35:41;0.85;;;0.30;;
46086;SDS011;31824;49.648;8.640;2022-07-12T18:38:44;0.38;;;0.20;;
46086;SDS011;31824;49.648;8.640;2022-07-12T18:41:45;0.43;;;0.28;;
46086;SDS011;31824;49.648;8.640;2022-07-12T18:44:47;0.38;;;0.20;;
46086;SDS011;31824;49.648;8.640;2022-07-12T18:47:48;0.50;;;0.30;;